English version
lugares datos climáticos artículos

datos de Mairena del Aljarafe, Sevilla, España
Año Mes Dia Mostrar

  Fecha       hora        Temp.ext.    Hum.ext.  Dir.Viento   Vel.Viento  Presion al NM   T.int. Prec.hoy 

   22-09-2018    13:45      33.1º(+3.4)     35%      067(NE)      3.2 km/h    1019.7 hpa     30.3º    0.0 mm
   22-09-2018    13:40      32.8º(+3.3)     36%      045(NE)      3.2 km/h    1019.7 hpa     30.3º    0.0 mm
   22-09-2018    13:35      32.6º(+3.4)     37%      090 (E)      1.6 km/h    1019.8 hpa     30.3º    0.0 mm
   22-09-2018    13:30      32.5º(+3.3)     38%      090 (E)      3.2 km/h    1019.8 hpa     30.3º    0.0 mm
   22-09-2018    13:25      32.4º(+3.1)     39%      022 (N)      4.8 km/h    1019.8 hpa     30.3º    0.0 mm
   22-09-2018    13:20      32.3º(+2.7)     40%      045(NE)      1.6 km/h    1020.0 hpa     30.2º    0.0 mm
   22-09-2018    13:15      31.9º(+2.3)     41%      045(NE)      1.6 km/h    1020.1 hpa     30.2º    0.0 mm
   22-09-2018    13:10      31.5º(+2.2)     41%      067(NE)      3.2 km/h    1020.1 hpa     30.2º    0.0 mm
   22-09-2018    13:05      31.3º(+2.2)     41%      067(NE)      4.8 km/h    1020.0 hpa     30.2º    0.0 mm
   22-09-2018    13:00      31.1º(+2.3)     42%      090 (E)      6.4 km/h    1020.1 hpa     30.2º    0.0 mm
   22-09-2018    12:55      31.0º(+2.3)     44%      045(NE)      1.6 km/h    1020.2 hpa     30.2º    0.0 mm
   22-09-2018    12:50      30.7º(+2.0)     44%      090 (E)      1.6 km/h    1020.3 hpa     30.1º    0.0 mm
   22-09-2018    12:45      30.5º(+1.8)     44%      045(NE)      3.2 km/h    1020.3 hpa     30.1º    0.0 mm
   22-09-2018    12:40      30.2º(+1.6)     46%      045(NE)      1.6 km/h    1020.2 hpa     30.1º    0.0 mm
   22-09-2018    12:35      29.9º(+1.5)     46%      045(NE)      4.8 km/h    1020.2 hpa     30.1º    0.0 mm
   22-09-2018    12:30      29.9º(+1.7)     46%      045(NE)      3.2 km/h    1020.2 hpa     30.1º    0.0 mm
   22-09-2018    12:25      29.8º(+2.0)     47%      090 (E)      1.6 km/h    1020.2 hpa     30.1º    0.0 mm
   22-09-2018    12:20      29.5º(+1.9)     47%      022 (N)      3.2 km/h    1020.2 hpa     29.9º    0.0 mm
   22-09-2018    12:15      29.4º(+2.0)     47%      022 (N)      1.6 km/h    1020.2 hpa     29.9º    0.0 mm
   22-09-2018    12:10      29.3º(+2.0)     48%         -         0.0 km/h    1020.2 hpa     29.9º    0.0 mm
   22-09-2018    12:05      29.1º(+1.8)     48%      090 (E)      1.6 km/h    1020.3 hpa     29.9º    0.0 mm
   22-09-2018    12:00      28.8º(+1.2)     48%      022 (N)      1.6 km/h    1020.3 hpa     29.9º    0.0 mm
   22-09-2018    11:55      28.7º(+1.0)     49%      045(NE)      3.2 km/h    1020.4 hpa     29.8º    0.0 mm
   22-09-2018    11:50      28.6º(+0.9)     49%      045(NE)      1.6 km/h    1020.4 hpa     29.8º    0.0 mm
   22-09-2018    11:45      28.5º(+0.8)     49%      045(NE)      1.6 km/h    1020.3 hpa     29.8º    0.0 mm
   22-09-2018    11:40      28.2º(+0.7)     50%         -         0.0 km/h    1020.3 hpa     29.8º    0.0 mm
   22-09-2018    11:35      27.9º(+0.6)     51%      045(NE)      1.6 km/h    1020.3 hpa     29.7º    0.0 mm
   22-09-2018    11:30      27.6º(+0.4)     52%         -         0.0 km/h    1020.3 hpa     29.7º    0.0 mm
   22-09-2018    11:25      27.2º(-0.1)     53%      090 (E)      1.6 km/h    1020.3 hpa     29.7º    0.0 mm
   22-09-2018    11:20      26.8º(-0.3)     54%      090 (E)      3.2 km/h    1020.3 hpa     29.7º    0.0 mm
   22-09-2018    11:15      26.7º(+0.1)     54%      090 (E)      4.8 km/h    1020.3 hpa     29.7º    0.0 mm
   22-09-2018    11:10      26.6º(+0.5)     54%      090 (E)      3.2 km/h    1020.3 hpa     29.7º    0.0 mm
   22-09-2018    11:05      26.4º(+0.5)     55%      112 (E)      3.2 km/h    1020.3 hpa     29.7º    0.0 mm
   22-09-2018    11:00      26.2º(+0.0)     55%         -         0.0 km/h    1020.2 hpa     29.7º    0.0 mm
   22-09-2018    10:55      25.9º(-0.3)     55%      067(NE)      1.6 km/h    1020.2 hpa     29.8º    0.0 mm
   22-09-2018    10:50      25.8º(-0.0)     55%      090 (E)      1.6 km/h    1020.1 hpa     29.8º    0.0 mm
   22-09-2018    10:45      25.9º(+0.3)     55%      067(NE)      3.2 km/h    1020.1 hpa     29.9º    0.0 mm
   22-09-2018    10:40      25.8º(+0.5)     55%      067(NE)      1.6 km/h    1020.1 hpa     30.1º    0.0 mm
   22-09-2018    10:35      25.6º(+0.7)      -%         -         0.0 km/h    1020.1 hpa     30.2º    0.0 mm
   22-09-2018    05:45      24.3º(+2.1)     62%      000 (N)      3.2 km/h    1017.9 hpa     29.8º    0.0 mm
   22-09-2018    05:40      24.4º(+2.1)     63%      000 (N)      3.2 km/h    1017.9 hpa     29.8º    0.0 mm
   22-09-2018    05:35      24.5º(+2.2)     63%      000 (N)      3.2 km/h    1017.9 hpa     29.8º    0.0 mm
   22-09-2018    05:30      24.5º(+2.1)     63%      000 (N)      3.2 km/h    1017.9 hpa     29.8º    0.0 mm
   22-09-2018    05:25      24.5º(+2.1)     64%      000 (N)      4.8 km/h    1018.0 hpa     29.8º    0.0 mm
   22-09-2018    05:20      24.4º(+2.1)     64%      315(NW)      3.2 km/h    1017.9 hpa     29.8º    0.0 mm
   22-09-2018    05:15      24.4º(+2.1)     64%      315(NW)      3.2 km/h    1017.9 hpa     29.8º    0.0 mm
   22-09-2018    05:10      24.3º(+2.0)     64%      292 (W)      3.2 km/h    1017.9 hpa     29.8º    0.0 mm
   22-09-2018    05:05      24.3º(+2.0)     65%      292 (W)      3.2 km/h    1017.9 hpa     29.8º    0.0 mm
   22-09-2018    05:00      24.2º(+1.9)     65%      270 (W)      3.2 km/h    1017.9 hpa     29.8º    0.0 mm
   22-09-2018    04:55      24.1º(+1.8)     66%      247(SW)      1.6 km/h    1017.9 hpa     29.8º    0.0 mm
   22-09-2018    04:50      24.1º(+1.8)     66%      247(SW)      3.2 km/h    1017.9 hpa     29.8º    0.0 mm
   22-09-2018    04:45      24.0º(+1.8)     66%         -         0.0 km/h    1017.9 hpa     29.8º    0.0 mm
   22-09-2018    04:40      24.0º(+1.8)     66%         -         0.0 km/h    1017.8 hpa     29.8º    0.0 mm
   22-09-2018    04:35      24.0º(+1.7)     66%         -         0.0 km/h    1017.9 hpa     29.8º    0.0 mm
   22-09-2018    04:30      24.0º(+1.7)     66%         -         0.0 km/h    1017.9 hpa     29.8º    0.0 mm
   22-09-2018    04:25      24.0º(+1.7)     66%         -         0.0 km/h    1017.9 hpa     29.8º    0.0 mm
   22-09-2018    04:20      24.1º(+1.8)     67%         -         0.0 km/h    1017.9 hpa     29.8º    0.0 mm
   22-09-2018    04:15      24.1º(+1.8)     67%         -         0.0 km/h    1018.0 hpa     29.8º    0.0 mm
   22-09-2018    04:10      24.1º(+1.8)     67%         -         0.0 km/h    1018.1 hpa     29.8º    0.0 mm
   22-09-2018    04:05      24.1º(+1.8)     67%         -         0.0 km/h    1018.1 hpa     29.8º    0.0 mm
   22-09-2018    04:00      24.1º(+1.7)     67%         -         0.0 km/h    1018.0 hpa     29.8º    0.0 mm
   22-09-2018    03:55      24.2º(+1.8)     67%         -         0.0 km/h    1018.1 hpa     29.8º    0.0 mm
   22-09-2018    03:50      24.1º(+1.7)     67%         -         0.0 km/h    1018.0 hpa     29.8º    0.0 mm
   22-09-2018    03:45      24.1º(+1.6)     67%      247(SW)      1.6 km/h    1018.0 hpa     29.8º    0.0 mm
   22-09-2018    03:40      24.1º(+1.5)     67%         -         0.0 km/h    1018.0 hpa     29.8º    0.0 mm
   22-09-2018    03:35      24.2º(+1.5)     67%         -         0.0 km/h    1018.0 hpa     29.8º    0.0 mm
   22-09-2018    03:30      24.2º(+1.5)     67%      247(SW)      1.6 km/h    1018.1 hpa     29.8º    0.0 mm
   22-09-2018    03:25      24.2º(+1.4)     67%         -         0.0 km/h    1018.1 hpa     29.8º    0.0 mm
   22-09-2018    03:20      24.2º(+1.4)     67%      247(SW)      1.6 km/h    1018.1 hpa     29.8º    0.0 mm
   22-09-2018    03:15      24.2º(+1.3)     67%      247(SW)      1.6 km/h    1018.2 hpa     29.8º    0.0 mm
   22-09-2018    03:10      24.2º(+1.2)     67%         -         0.0 km/h    1018.1 hpa     29.8º    0.0 mm
   22-09-2018    03:05      24.2º(+1.1)     67%         -         0.0 km/h    1018.2 hpa     29.8º    0.0 mm
   22-09-2018    03:00      24.2º(+1.0)     67%         -         0.0 km/h    1018.2 hpa     29.8º    0.0 mm
   22-09-2018    02:55      24.2º(+1.0)     67%         -         0.0 km/h    1018.2 hpa     29.9º    0.0 mm
   22-09-2018    02:50      24.3º(+1.0)     67%         -         0.0 km/h    1018.1 hpa     29.9º    0.0 mm
   22-09-2018    02:45      24.3º(+1.0)     67%         -         0.0 km/h    1018.1 hpa     29.9º    0.0 mm
   22-09-2018    02:40      24.3º(+0.9)     66%         -         0.0 km/h    1018.2 hpa     29.9º    0.0 mm
   22-09-2018    02:35      24.4º(+0.9)     66%         -         0.0 km/h    1018.2 hpa     29.9º    0.0 mm
   22-09-2018    02:30      24.4º(+0.8)     66%      180 (S)      1.6 km/h    1018.2 hpa     29.9º    0.0 mm
   22-09-2018    02:25      24.5º(+0.9)     66%      180 (S)      1.6 km/h    1018.3 hpa     29.9º    0.0 mm
   22-09-2018    02:20      24.6º(+1.0)     66%         -         0.0 km/h    1018.3 hpa     29.9º    0.0 mm
   22-09-2018    02:15      24.7º(+1.0)     66%      180 (S)      1.6 km/h    1018.2 hpa     29.9º    0.0 mm
   22-09-2018    02:10      24.7º(+1.0)     66%      180 (S)      1.6 km/h    1018.2 hpa     29.9º    0.0 mm
   22-09-2018    02:05      24.7º(+1.0)     66%      180 (S)      1.6 km/h    1018.3 hpa     29.9º    0.0 mm
   22-09-2018    02:00      24.7º(+1.1)     66%         -         0.0 km/h    1018.3 hpa     29.9º    0.0 mm
   22-09-2018    01:55      24.7º(----)     66%         -         0.0 km/h    1018.3 hpa     29.8º    0.0 mm
   22-09-2018    01:50      24.7º(----)     66%         -         0.0 km/h    1018.3 hpa     29.8º    0.0 mm
   22-09-2018    01:45      24.7º(----)     66%         -         0.0 km/h    1018.3 hpa     29.8º    0.0 mm
   22-09-2018    01:40      24.7º(----)     66%         -         0.0 km/h    1018.3 hpa     29.8º    0.0 mm
   22-09-2018    01:35      24.8º(----)     66%         -         0.0 km/h    1018.4 hpa     29.8º    0.0 mm
   22-09-2018    01:30      24.8º(----)     66%         -         0.0 km/h    1018.3 hpa     29.8º    0.0 mm
   22-09-2018    01:25      24.9º(----)     65%         -         0.0 km/h    1018.3 hpa     29.8º    0.0 mm
   22-09-2018    01:20      25.0º(----)     65%         -         0.0 km/h    1018.4 hpa     29.8º    0.0 mm
   22-09-2018    01:15      25.0º(----)     65%         -         0.0 km/h    1018.3 hpa     29.8º    0.0 mm
   22-09-2018    01:10      25.0º(----)     64%         -         0.0 km/h    1018.2 hpa     29.8º    0.0 mm
   22-09-2018    01:05      25.0º(----)     64%         -         0.0 km/h    1018.2 hpa     29.8º    0.0 mm
   22-09-2018    01:00      25.0º(----)     64%         -         0.0 km/h    1018.2 hpa     29.8º    0.0 mm
   22-09-2018    00:55      25.0º(----)     63%         -         0.0 km/h    1018.1 hpa     29.9º    0.0 mm
   22-09-2018    00:50      25.1º(----)     63%         -         0.0 km/h    1018.2 hpa     29.9º    0.0 mm
   22-09-2018    00:45      25.3º(----)     62%      135(SE)      1.6 km/h    1018.2 hpa     30.1º    0.0 mm
   22-09-2018    00:40      25.9º(----)     59%      135(SE)      1.6 km/h    1018.1 hpa     30.1º    0.0 mm
   22-09-2018    00:35      26.9º(----)     54%      157(SE)      1.6 km/h    1018.1 hpa     30.1º    0.0 mm
   22-09-2018    00:30      27.9º(----)     48%      067(NE)      1.6 km/h    1017.9 hpa     30.2º    0.0 mm
   22-09-2018    00:25      27.9º(----)     47%         -         0.0 km/h    1017.9 hpa     30.2º    0.0 mm
   22-09-2018    00:20      28.2º(----)     47%      067(NE)      1.6 km/h    1017.9 hpa     30.2º    0.0 mm
   22-09-2018    00:15      28.6º(----)     45%         -         0.0 km/h    1017.9 hpa     30.2º    0.0 mm
   22-09-2018    00:10      28.6º(----)     45%      315(NW)      4.8 km/h    1017.8 hpa     30.2º    0.0 mm
   22-09-2018    00:05      28.7º(----)     45%      315(NW)      4.8 km/h    1017.8 hpa     30.2º    0.0 mm
   22-09-2018    00:00      28.7º(----)     45%      315(NW)      6.4 km/h    1017.8 hpa     30.2º    0.0 mm